sensor_id;sensor_type;location;lat;lon;timestamp;temperature;humidity
24232;DHT22;12364;47.810;8.810;2023-07-08T04:31:10;23.50;79.60
24232;DHT22;12364;47.810;8.810;2023-07-08T04:33:37;23.60;79.30
24232;DHT22;12364;47.810;8.810;2023-07-08T04:36:04;23.60;79.60
24232;DHT22;12364;47.810;8.810;2023-07-08T04:38:35;23.60;80.00
24232;DHT22;12364;47.810;8.810;2023-07-08T04:41:03;23.70;80.50
24232;DHT22;12364;47.810;8.810;2023-07-08T04:43:30;23.70;81.80
24232;DHT22;12364;47.810;8.810;2023-07-08T04:45:57;23.80;84.10
24232;DHT22;12364;47.810;8.810;2023-07-08T04:48:24;23.70;84.20
24232;DHT22;12364;47.810;8.810;2023-07-08T04:50:52;23.60;83.80
24232;DHT22;12364;47.810;8.810;2023-07-08T04:53:19;23.60;84.30
24232;DHT22;12364;47.810;8.810;2023-07-08T04:55:48;23.60;86.80
24232;DHT22;12364;47.810;8.810;2023-07-08T04:58:16;23.40;86.90
24232;DHT22;12364;47.810;8.810;2023-07-08T05:00:43;23.10;87.40
24232;DHT22;12364;47.810;8.810;2023-07-08T05:03:11;22.90;87.80
24232;DHT22;12364;47.810;8.810;2023-07-08T05:05:38;22.90;88.20
24232;DHT22;12364;47.810;8.810;2023-07-08T05:08:05;23.10;86.80
24232;DHT22;12364;47.810;8.810;2023-07-08T05:10:33;23.10;85.60
24232;DHT22;12364;47.810;8.810;2023-07-08T05:13:00;23.10;83.70
24232;DHT22;12364;47.810;8.810;2023-07-08T05:15:27;23.10;82.70
24232;DHT22;12364;47.810;8.810;2023-07-08T05:17:54;23.20;82.60
24232;DHT22;12364;47.810;8.810;2023-07-08T05:20:21;23.20;82.10
24232;DHT22;12364;47.810;8.810;2023-07-08T05:22:49;23.40;87.10
24232;DHT22;12364;47.810;8.810;2023-07-08T05:25:17;23.40;87.60
24232;DHT22;12364;47.810;8.810;2023-07-08T05:27:45;23.50;88.40
24232;DHT22;12364;47.810;8.810;2023-07-08T05:30:14;23.50;88.80
24232;DHT22;12364;47.810;8.810;2023-07-08T05:32:41;23.60;88.80
24232;DHT22;12364;47.810;8.810;2023-07-08T05:35:08;23.60;89.00
24232;DHT22;12364;47.810;8.810;2023-07-08T05:37:37;23.50;84.60
24232;DHT22;12364;47.810;8.810;2023-07-08T05:40:04;23.30;80.00
24232;DHT22;12364;47.810;8.810;2023-07-08T05:42:32;23.10;81.00
24232;DHT22;12364;47.810;8.810;2023-07-08T05:44:59;22.90;81.20
24232;DHT22;12364;47.810;8.810;2023-07-08T05:47:26;22.50;84.00
24232;DHT22;12364;47.810;8.810;2023-07-08T05:49:54;22.20;85.40
24232;DHT22;12364;47.810;8.810;2023-07-08T05:52:20;22.10;86.90
24232;DHT22;12364;47.810;8.810;2023-07-08T05:54:47;21.70;88.80
24232;DHT22;12364;47.810;8.810;2023-07-08T05:57:14;21.60;89.70
24232;DHT22;12364;47.810;8.810;2023-07-08T05:59:41;21.50;90.20
24232;DHT22;12364;47.810;8.810;2023-07-08T06:02:10;21.50;90.30
24232;DHT22;12364;47.810;8.810;2023-07-08T06:04:38;21.30;90.40
24232;DHT22;12364;47.810;8.810;2023-07-08T06:07:05;21.20;90.30
24232;DHT22;12364;47.810;8.810;2023-07-08T06:09:33;21.30;90.40
24232;DHT22;12364;47.810;8.810;2023-07-08T06:12:00;21.30;90.50
24232;DHT22;12364;47.810;8.810;2023-07-08T06:14:27;21.30;90.50
24232;DHT22;12364;47.810;8.810;2023-07-08T06:16:54;21.50;90.30
24232;DHT22;12364;47.810;8.810;2023-07-08T06:19:22;21.30;90.20
24232;DHT22;12364;47.810;8.810;2023-07-08T06:21:49;21.30;90.50
24232;DHT22;12364;47.810;8.810;2023-07-08T06:24:16;21.40;90.60
24232;DHT22;12364;47.810;8.810;2023-07-08T06:26:43;21.50;90.80
24232;DHT22;12364;47.810;8.810;2023-07-08T06:29:10;21.70;90.70
24232;DHT22;12364;47.810;8.810;2023-07-08T06:31:37;21.90;90.60
24232;DHT22;12364;47.810;8.810;2023-07-08T06:34:05;22.30;90.50
24232;DHT22;12364;47.810;8.810;2023-07-08T06:36:32;22.10;90.00
24232;DHT22;12364;47.810;8.810;2023-07-08T06:38:59;22.30;89.00
24232;DHT22;12364;47.810;8.810;2023-07-08T06:41:26;22.40;88.70
24232;DHT22;12364;47.810;8.810;2023-07-08T06:43:53;22.50;89.60
24232;DHT22;12364;47.810;8.810;2023-07-08T06:46:20;22.60;90.00
24232;DHT22;12364;47.810;8.810;2023-07-08T06:48:47;22.70;90.40
24232;DHT22;12364;47.810;8.810;2023-07-08T06:51:14;22.70;90.80
24232;DHT22;12364;47.810;8.810;2023-07-08T06:53:42;22.60;90.90
24232;DHT22;12364;47.810;8.810;2023-07-08T06:56:09;22.80;90.80
24232;DHT22;12364;47.810;8.810;2023-07-08T06:58:36;22.90;90.70
24232;DHT22;12364;47.810;8.810;2023-07-08T07:01:03;23.00;90.30
24232;DHT22;12364;47.810;8.810;2023-07-08T07:03:30;23.00;90.20
24232;DHT22;12364;47.810;8.810;2023-07-08T07:05:57;23.20;90.20
24232;DHT22;12364;47.810;8.810;2023-07-08T07:08:24;23.00;90.00
24232;DHT22;12364;47.810;8.810;2023-07-08T07:10:51;23.00;89.70
24232;DHT22;12364;47.810;8.810;2023-07-08T07:13:18;23.10;90.10
24232;DHT22;12364;47.810;8.810;2023-07-08T07:15:47;23.20;89.40
24232;DHT22;12364;47.810;8.810;2023-07-08T07:18:18;23.20;89.90
24232;DHT22;12364;47.810;8.810;2023-07-08T07:20:48;23.30;89.80
24232;DHT22;12364;47.810;8.810;2023-07-08T07:23:16;23.20;89.70
24232;DHT22;12364;47.810;8.810;2023-07-08T07:25:44;23.20;89.90
24232;DHT22;12364;47.810;8.810;2023-07-08T07:28:14;23.20;90.10
24232;DHT22;12364;47.810;8.810;2023-07-08T07:30:44;23.20;90.20
24232;DHT22;12364;47.810;8.810;2023-07-08T07:33:11;23.20;90.20
24232;DHT22;12364;47.810;8.810;2023-07-08T07:35:44;23.20;90.50
24232;DHT22;12364;47.810;8.810;2023-07-08T07:38:13;23.20;90.30
24232;DHT22;12364;47.810;8.810;2023-07-08T07:40:40;23.20;90.60
24232;DHT22;12364;47.810;8.810;2023-07-08T07:43:07;23.30;90.80
24232;DHT22;12364;47.810;8.810;2023-07-08T07:45:35;23.30;90.80
24232;DHT22;12364;47.810;8.810;2023-07-08T07:48:02;23.30;90.70
24232;DHT22;12364;47.810;8.810;2023-07-08T07:50:29;23.30;90.70
24232;DHT22;12364;47.810;8.810;2023-07-08T07:52:56;23.30;90.70
24232;DHT22;12364;47.810;8.810;2023-07-08T07:55:23;23.20;90.90
24232;DHT22;12364;47.810;8.810;2023-07-08T07:57:50;23.10;90.90
24232;DHT22;12364;47.810;8.810;2023-07-08T08:00:17;22.90;91.00
24232;DHT22;12364;47.810;8.810;2023-07-08T08:02:44;22.90;91.20
24232;DHT22;12364;47.810;8.810;2023-07-08T08:05:12;23.00;91.40
24232;DHT22;12364;47.810;8.810;2023-07-08T08:07:38;23.00;91.40
24232;DHT22;12364;47.810;8.810;2023-07-08T08:10:07;23.00;91.50
24232;DHT22;12364;47.810;8.810;2023-07-08T08:12:34;23.00;91.70
24232;DHT22;12364;47.810;8.810;2023-07-08T08:15:19;22.90;91.70
24232;DHT22;12364;47.810;8.810;2023-07-08T08:17:46;22.70;91.60
24232;DHT22;12364;47.810;8.810;2023-07-08T08:20:16;22.60;91.90
24232;DHT22;12364;47.810;8.810;2023-07-08T08:22:43;22.50;92.20
24232;DHT22;12364;47.810;8.810;2023-07-08T08:25:10;22.40;92.70
24232;DHT22;12364;47.810;8.810;2023-07-08T08:27:37;22.40;92.90
24232;DHT22;12364;47.810;8.810;2023-07-08T08:30:04;22.50;92.90
24232;DHT22;12364;47.810;8.810;2023-07-08T08:32:32;22.60;92.90
24232;DHT22;12364;47.810;8.810;2023-07-08T08:34:59;22.70;93.00
24232;DHT22;12364;47.810;8.810;2023-07-08T08:37:29;22.70;92.70
24232;DHT22;12364;47.810;8.810;2023-07-08T08:39:55;22.70;92.60
24232;DHT22;12364;47.810;8.810;2023-07-08T08:42:26;22.80;92.70
24232;DHT22;12364;47.810;8.810;2023-07-08T08:44:54;22.90;93.10
24232;DHT22;12364;47.810;8.810;2023-07-08T08:49:54;23.00;92.40
24232;DHT22;12364;47.810;8.810;2023-07-08T08:52:22;23.00;92.50
24232;DHT22;12364;47.810;8.810;2023-07-08T08:54:49;22.90;92.50
24232;DHT22;12364;47.810;8.810;2023-07-08T08:57:31;23.00;92.20
24232;DHT22;12364;47.810;8.810;2023-07-08T08:59:59;23.00;92.20
24232;DHT22;12364;47.810;8.810;2023-07-08T09:05:02;23.20;92.20
24232;DHT22;12364;47.810;8.810;2023-07-08T09:07:30;23.30;92.20
24232;DHT22;12364;47.810;8.810;2023-07-08T09:10:02;23.50;92.40
24232;DHT22;12364;47.810;8.810;2023-07-08T09:12:31;23.40;91.70
24232;DHT22;12364;47.810;8.810;2023-07-08T09:14:58;23.50;91.60
24232;DHT22;12364;47.810;8.810;2023-07-08T09:17:30;23.40;91.30
24232;DHT22;12364;47.810;8.810;2023-07-08T09:22:38;23.40;91.70
24232;DHT22;12364;47.810;8.810;2023-07-08T09:27:34;23.70;91.60
24232;DHT22;12364;47.810;8.810;2023-07-08T09:30:01;23.80;91.50
24232;DHT22;12364;47.810;8.810;2023-07-08T09:32:28;23.80;90.80
24232;DHT22;12364;47.810;8.810;2023-07-08T09:35:05;23.70;91.10
24232;DHT22;12364;47.810;8.810;2023-07-08T09:37:34;23.60;90.60
24232;DHT22;12364;47.810;8.810;2023-07-08T09:40:14;23.50;90.90
24232;DHT22;12364;47.810;8.810;2023-07-08T09:42:42;23.60;91.20
24232;DHT22;12364;47.810;8.810;2023-07-08T09:45:11;23.80;91.30
24232;DHT22;12364;47.810;8.810;2023-07-08T09:47:38;23.90;90.40
24232;DHT22;12364;47.810;8.810;2023-07-08T09:53:03;23.80;90.80
24232;DHT22;12364;47.810;8.810;2023-07-08T09:55:31;24.00;91.40
24232;DHT22;12364;47.810;8.810;2023-07-08T09:57:59;24.10;90.90
24232;DHT22;12364;47.810;8.810;2023-07-08T10:00:33;24.20;91.10
24232;DHT22;12364;47.810;8.810;2023-07-08T10:03:03;24.30;90.80
24232;DHT22;12364;47.810;8.810;2023-07-08T10:05:41;24.40;90.90
24232;DHT22;12364;47.810;8.810;2023-07-08T10:08:14;24.40;90.30
24232;DHT22;12364;47.810;8.810;2023-07-08T10:10:42;24.50;90.00
24232;DHT22;12364;47.810;8.810;2023-07-08T10:15:56;24.60;89.70
24232;DHT22;12364;47.810;8.810;2023-07-08T10:18:26;24.50;89.40
24232;DHT22;12364;47.810;8.810;2023-07-08T10:21:02;24.50;89.90
24232;DHT22;12364;47.810;8.810;2023-07-08T10:26:06;24.60;90.50
24232;DHT22;12364;47.810;8.810;2023-07-08T10:28:58;24.50;90.10
24232;DHT22;12364;47.810;8.810;2023-07-08T10:34:03;24.50;90.20
24232;DHT22;12364;47.810;8.810;2023-07-08T10:36:53;24.50;90.30
24232;DHT22;12364;47.810;8.810;2023-07-08T10:44:24;24.50;90.50
24232;DHT22;12364;47.810;8.810;2023-07-08T10:49:29;24.70;90.60
24232;DHT22;12364;47.810;8.810;2023-07-08T10:57:06;24.90;90.30
24232;DHT22;12364;47.810;8.810;2023-07-08T11:02:31;25.00;90.60
24232;DHT22;12364;47.810;8.810;2023-07-08T11:07:39;25.20;90.10
24232;DHT22;12364;47.810;8.810;2023-07-08T11:10:16;25.20;90.00
24232;DHT22;12364;47.810;8.810;2023-07-08T11:12:45;25.20;89.70
24232;DHT22;12364;47.810;8.810;2023-07-08T11:15:28;25.20;88.90
24232;DHT22;12364;47.810;8.810;2023-07-08T11:18:07;25.30;89.90
24232;DHT22;12364;47.810;8.810;2023-07-08T11:20:43;25.30;89.10
24232;DHT22;12364;47.810;8.810;2023-07-08T11:23:29;25.30;90.10
24232;DHT22;12364;47.810;8.810;2023-07-08T11:26:33;25.40;89.70
24232;DHT22;12364;47.810;8.810;2023-07-08T11:28:52;25.50;88.80
24232;DHT22;12364;47.810;8.810;2023-07-08T11:31:20;25.50;89.10
24232;DHT22;12364;47.810;8.810;2023-07-08T11:33:50;25.60;88.90
24232;DHT22;12364;47.810;8.810;2023-07-08T11:36:17;25.70;89.50
24232;DHT22;12364;47.810;8.810;2023-07-08T11:38:47;25.80;88.40
24232;DHT22;12364;47.810;8.810;2023-07-08T11:41:15;25.80;88.30
24232;DHT22;12364;47.810;8.810;2023-07-08T11:46:18;25.90;87.40
24232;DHT22;12364;47.810;8.810;2023-07-08T11:48:48;25.90;87.80
24232;DHT22;12364;47.810;8.810;2023-07-08T11:51:19;25.90;87.80
24232;DHT22;12364;47.810;8.810;2023-07-08T11:53:48;25.80;87.50
24232;DHT22;12364;47.810;8.810;2023-07-08T12:01:37;26.10;86.40
24232;DHT22;12364;47.810;8.810;2023-07-08T12:09:13;26.30;84.80
24232;DHT22;12364;47.810;8.810;2023-07-08T12:11:44;26.30;84.70
24232;DHT22;12364;47.810;8.810;2023-07-08T12:14:12;26.40;85.00
24232;DHT22;12364;47.810;8.810;2023-07-08T12:16:41;26.40;85.00
24232;DHT22;12364;47.810;8.810;2023-07-08T12:19:11;26.30;84.00
24232;DHT22;12364;47.810;8.810;2023-07-08T12:21:40;26.30;84.30
24232;DHT22;12364;47.810;8.810;2023-07-08T12:24:10;26.40;83.30
24232;DHT22;12364;47.810;8.810;2023-07-08T12:26:39;26.40;82.10
24232;DHT22;12364;47.810;8.810;2023-07-08T12:29:07;26.60;82.80
24232;DHT22;12364;47.810;8.810;2023-07-08T12:31:34;26.70;82.70
24232;DHT22;12364;47.810;8.810;2023-07-08T12:34:01;26.80;82.80
24232;DHT22;12364;47.810;8.810;2023-07-08T12:36:29;26.80;83.00
24232;DHT22;12364;47.810;8.810;2023-07-08T12:38:57;26.80;81.80
24232;DHT22;12364;47.810;8.810;2023-07-08T12:41:27;26.90;83.00
24232;DHT22;12364;47.810;8.810;2023-07-08T12:43:55;27.00;84.00
24232;DHT22;12364;47.810;8.810;2023-07-08T12:46:23;27.10;83.30
24232;DHT22;12364;47.810;8.810;2023-07-08T12:48:50;27.20;82.40
24232;DHT22;12364;47.810;8.810;2023-07-08T12:51:18;27.20;81.40
24232;DHT22;12364;47.810;8.810;2023-07-08T12:53:47;27.20;81.90
24232;DHT22;12364;47.810;8.810;2023-07-08T12:56:15;27.20;80.60
24232;DHT22;12364;47.810;8.810;2023-07-08T12:58:43;27.20;80.30
24232;DHT22;12364;47.810;8.810;2023-07-08T13:01:14;27.20;80.90
24232;DHT22;12364;47.810;8.810;2023-07-08T13:03:43;27.30;81.00
24232;DHT22;12364;47.810;8.810;2023-07-08T13:06:11;27.40;80.20
24232;DHT22;12364;47.810;8.810;2023-07-08T13:08:39;27.40;79.40
24232;DHT22;12364;47.810;8.810;2023-07-08T13:11:06;27.50;80.20
24232;DHT22;12364;47.810;8.810;2023-07-08T13:13:34;27.50;78.80
24232;DHT22;12364;47.810;8.810;2023-07-08T13:16:02;27.40;79.20
24232;DHT22;12364;47.810;8.810;2023-07-08T13:18:33;27.40;79.40
24232;DHT22;12364;47.810;8.810;2023-07-08T13:21:00;27.50;79.20
24232;DHT22;12364;47.810;8.810;2023-07-08T13:23:28;27.50;79.80
24232;DHT22;12364;47.810;8.810;2023-07-08T13:25:56;27.50;80.10
24232;DHT22;12364;47.810;8.810;2023-07-08T13:28:24;27.60;80.00
24232;DHT22;12364;47.810;8.810;2023-07-08T13:33:19;27.60;78.80
24232;DHT22;12364;47.810;8.810;2023-07-08T13:35:47;27.60;75.70
24232;DHT22;12364;47.810;8.810;2023-07-08T13:38:18;27.70;76.40
24232;DHT22;12364;47.810;8.810;2023-07-08T13:40:53;27.70;74.40
24232;DHT22;12364;47.810;8.810;2023-07-08T13:43:24;27.70;74.10
24232;DHT22;12364;47.810;8.810;2023-07-08T13:45:52;27.80;74.90
24232;DHT22;12364;47.810;8.810;2023-07-08T13:48:29;27.80;76.50
24232;DHT22;12364;47.810;8.810;2023-07-08T13:50:58;27.80;74.60
24232;DHT22;12364;47.810;8.810;2023-07-08T13:56:10;27.90;74.50
24232;DHT22;12364;47.810;8.810;2023-07-08T13:58:41;27.90;76.30
24232;DHT22;12364;47.810;8.810;2023-07-08T14:01:09;27.90;75.60
24232;DHT22;12364;47.810;8.810;2023-07-08T14:03:41;28.00;75.60
24232;DHT22;12364;47.810;8.810;2023-07-08T14:06:42;28.00;75.00
24232;DHT22;12364;47.810;8.810;2023-07-08T14:09:15;28.00;73.60
24232;DHT22;12364;47.810;8.810;2023-07-08T14:11:43;28.00;74.30
24232;DHT22;12364;47.810;8.810;2023-07-08T14:14:10;28.10;76.40
24232;DHT22;12364;47.810;8.810;2023-07-08T14:16:41;28.10;77.50
24232;DHT22;12364;47.810;8.810;2023-07-08T14:19:21;28.10;76.40
24232;DHT22;12364;47.810;8.810;2023-07-08T14:21:50;28.20;75.70
24232;DHT22;12364;47.810;8.810;2023-07-08T14:24:18;28.20;75.20
24232;DHT22;12364;47.810;8.810;2023-07-08T14:26:45;28.10;75.10
24232;DHT22;12364;47.810;8.810;2023-07-08T14:29:12;28.20;76.00
24232;DHT22;12364;47.810;8.810;2023-07-08T14:31:40;28.20;73.80
24232;DHT22;12364;47.810;8.810;2023-07-08T14:34:07;28.20;73.70
24232;DHT22;12364;47.810;8.810;2023-07-08T14:36:35;28.20;73.60
24232;DHT22;12364;47.810;8.810;2023-07-08T14:39:09;28.30;73.10
24232;DHT22;12364;47.810;8.810;2023-07-08T14:41:37;28.30;73.40
24232;DHT22;12364;47.810;8.810;2023-07-08T14:44:38;28.30;73.10
24232;DHT22;12364;47.810;8.810;2023-07-08T14:46:57;28.30;72.20
24232;DHT22;12364;47.810;8.810;2023-07-08T14:49:25;28.30;71.90
24232;DHT22;12364;47.810;8.810;2023-07-08T14:51:53;28.30;71.90
24232;DHT22;12364;47.810;8.810;2023-07-08T14:54:20;28.40;72.80
24232;DHT22;12364;47.810;8.810;2023-07-08T14:56:48;28.40;73.50
24232;DHT22;12364;47.810;8.810;2023-07-08T14:59:17;28.40;72.00
24232;DHT22;12364;47.810;8.810;2023-07-08T15:01:44;28.40;71.80
24232;DHT22;12364;47.810;8.810;2023-07-08T15:04:12;28.40;71.90
24232;DHT22;12364;47.810;8.810;2023-07-08T15:06:43;28.50;71.20
24232;DHT22;12364;47.810;8.810;2023-07-08T15:09:10;28.50;73.30
24232;DHT22;12364;47.810;8.810;2023-07-08T15:11:38;28.50;73.30
24232;DHT22;12364;47.810;8.810;2023-07-08T15:14:09;28.60;72.90
24232;DHT22;12364;47.810;8.810;2023-07-08T15:16:38;28.60;71.70
24232;DHT22;12364;47.810;8.810;2023-07-08T15:19:09;28.60;71.90
24232;DHT22;12364;47.810;8.810;2023-07-08T15:21:36;28.60;72.10
24232;DHT22;12364;47.810;8.810;2023-07-08T15:24:03;28.70;73.70
24232;DHT22;12364;47.810;8.810;2023-07-08T15:26:30;28.70;74.80
24232;DHT22;12364;47.810;8.810;2023-07-08T15:28:57;28.80;72.80
24232;DHT22;12364;47.810;8.810;2023-07-08T15:31:24;28.80;71.70
24232;DHT22;12364;47.810;8.810;2023-07-08T15:33:53;28.80;72.00
24232;DHT22;12364;47.810;8.810;2023-07-08T15:36:20;28.90;71.50
24232;DHT22;12364;47.810;8.810;2023-07-08T15:38:47;28.90;72.30
24232;DHT22;12364;47.810;8.810;2023-07-08T15:43:41;28.90;72.90
24232;DHT22;12364;47.810;8.810;2023-07-08T15:46:08;29.00;74.10
24232;DHT22;12364;47.810;8.810;2023-07-08T15:48:35;29.00;74.70
24232;DHT22;12364;47.810;8.810;2023-07-08T15:51:02;29.00;74.60
24232;DHT22;12364;47.810;8.810;2023-07-08T15:53:29;29.00;71.60
24232;DHT22;12364;47.810;8.810;2023-07-08T15:55:56;29.00;72.50
24232;DHT22;12364;47.810;8.810;2023-07-08T15:58:26;29.10;74.00
24232;DHT22;12364;47.810;8.810;2023-07-08T16:00:54;29.10;71.70
24232;DHT22;12364;47.810;8.810;2023-07-08T16:03:23;29.10;71.80
24232;DHT22;12364;47.810;8.810;2023-07-08T16:05:51;29.10;70.70
24232;DHT22;12364;47.810;8.810;2023-07-08T16:08:18;29.10;69.90
24232;DHT22;12364;47.810;8.810;2023-07-08T16:10:56;29.10;70.00
24232;DHT22;12364;47.810;8.810;2023-07-08T16:13:28;29.10;70.40
24232;DHT22;12364;47.810;8.810;2023-07-08T16:15:56;29.20;70.20
24232;DHT22;12364;47.810;8.810;2023-07-08T16:18:23;29.20;69.50
24232;DHT22;12364;47.810;8.810;2023-07-08T16:20:51;29.10;71.40
24232;DHT22;12364;47.810;8.810;2023-07-08T16:23:18;29.20;70.60
24232;DHT22;12364;47.810;8.810;2023-07-08T16:25:46;29.50;71.00
24232;DHT22;12364;47.810;8.810;2023-07-08T16:28:21;31.20;69.70
24232;DHT22;12364;47.810;8.810;2023-07-08T16:30:50;31.80;67.10
24232;DHT22;12364;47.810;8.810;2023-07-08T16:33:17;31.70;65.70
24232;DHT22;12364;47.810;8.810;2023-07-08T16:35:44;31.70;65.60
24232;DHT22;12364;47.810;8.810;2023-07-08T16:38:11;31.60;64.80
24232;DHT22;12364;47.810;8.810;2023-07-08T16:40:38;31.50;64.40
24232;DHT22;12364;47.810;8.810;2023-07-08T16:43:07;31.30;64.60
24232;DHT22;12364;47.810;8.810;2023-07-08T16:45:42;31.10;64.60
24232;DHT22;12364;47.810;8.810;2023-07-08T16:48:09;30.80;64.10
24232;DHT22;12364;47.810;8.810;2023-07-08T16:50:36;30.60;64.80
24232;DHT22;12364;47.810;8.810;2023-07-08T16:53:08;30.50;64.80
24232;DHT22;12364;47.810;8.810;2023-07-08T16:55:35;30.30;64.70
24232;DHT22;12364;47.810;8.810;2023-07-08T16:58:02;30.20;65.10
24232;DHT22;12364;47.810;8.810;2023-07-08T17:00:29;30.10;65.50
24232;DHT22;12364;47.810;8.810;2023-07-08T17:02:57;30.10;66.10
24232;DHT22;12364;47.810;8.810;2023-07-08T17:05:30;30.00;65.80
24232;DHT22;12364;47.810;8.810;2023-07-08T17:07:57;30.00;66.20
24232;DHT22;12364;47.810;8.810;2023-07-08T17:10:24;29.90;66.50
24232;DHT22;12364;47.810;8.810;2023-07-08T17:12:53;29.90;67.10
24232;DHT22;12364;47.810;8.810;2023-07-08T17:15:25;29.90;67.40
24232;DHT22;12364;47.810;8.810;2023-07-08T17:17:53;29.80;67.40
24232;DHT22;12364;47.810;8.810;2023-07-08T17:20:22;29.80;67.10
24232;DHT22;12364;47.810;8.810;2023-07-08T17:22:50;29.80;66.90
24232;DHT22;12364;47.810;8.810;2023-07-08T17:25:18;29.80;67.50
24232;DHT22;12364;47.810;8.810;2023-07-08T17:27:46;29.80;67.60
24232;DHT22;12364;47.810;8.810;2023-07-08T17:30:14;29.80;67.40
24232;DHT22;12364;47.810;8.810;2023-07-08T17:32:41;29.80;67.00
24232;DHT22;12364;47.810;8.810;2023-07-08T17:35:13;29.80;67.30
24232;DHT22;12364;47.810;8.810;2023-07-08T17:37:41;29.80;67.20
24232;DHT22;12364;47.810;8.810;2023-07-08T17:40:18;29.90;67.10
24232;DHT22;12364;47.810;8.810;2023-07-08T17:42:46;29.80;66.90
24232;DHT22;12364;47.810;8.810;2023-07-08T17:45:15;29.90;67.50
24232;DHT22;12364;47.810;8.810;2023-07-08T17:47:42;29.90;67.40
24232;DHT22;12364;47.810;8.810;2023-07-08T17:50:18;29.90;67.60
24232;DHT22;12364;47.810;8.810;2023-07-08T17:52:46;29.90;67.90
24232;DHT22;12364;47.810;8.810;2023-07-08T17:55:13;29.90;68.10
24232;DHT22;12364;47.810;8.810;2023-07-08T17:57:40;30.00;68.20
24232;DHT22;12364;47.810;8.810;2023-07-08T18:02:41;30.00;66.20
24232;DHT22;12364;47.810;8.810;2023-07-08T18:05:12;30.00;68.40
24232;DHT22;12364;47.810;8.810;2023-07-08T18:07:39;30.00;68.00
24232;DHT22;12364;47.810;8.810;2023-07-08T18:10:06;30.00;69.10
24232;DHT22;12364;47.810;8.810;2023-07-08T18:12:36;30.00;69.60
24232;DHT22;12364;47.810;8.810;2023-07-08T18:15:14;30.00;68.50
24232;DHT22;12364;47.810;8.810;2023-07-08T18:17:42;30.00;69.30
24232;DHT22;12364;47.810;8.810;2023-07-08T18:20:09;30.00;69.00
24232;DHT22;12364;47.810;8.810;2023-07-08T18:22:38;30.00;69.70
24232;DHT22;12364;47.810;8.810;2023-07-08T18:25:15;30.00;69.60
24232;DHT22;12364;47.810;8.810;2023-07-08T18:27:42;30.00;69.10
24232;DHT22;12364;47.810;8.810;2023-07-08T18:30:11;30.00;69.00
24232;DHT22;12364;47.810;8.810;2023-07-08T18:32:38;30.00;69.70
24232;DHT22;12364;47.810;8.810;2023-07-08T18:35:24;29.90;69.80
24232;DHT22;12364;47.810;8.810;2023-07-08T18:37:52;29.90;69.90
24232;DHT22;12364;47.810;8.810;2023-07-08T18:40:28;29.90;69.90
24232;DHT22;12364;47.810;8.810;2023-07-08T18:42:59;29.90;70.00
24232;DHT22;12364;47.810;8.810;2023-07-08T18:45:27;29.90;69.90
24232;DHT22;12364;47.810;8.810;2023-07-08T18:47:54;29.90;70.50
24232;DHT22;12364;47.810;8.810;2023-07-08T18:50:21;29.80;71.80
24232;DHT22;12364;47.810;8.810;2023-07-08T18:52:50;29.80;71.00
24232;DHT22;12364;47.810;8.810;2023-07-08T18:55:18;29.80;71.50
24232;DHT22;12364;47.810;8.810;2023-07-08T18:57:46;29.70;71.50
24232;DHT22;12364;47.810;8.810;2023-07-08T19:00:14;29.60;72.40
24232;DHT22;12364;47.810;8.810;2023-07-08T19:02:45;29.60;72.40
24232;DHT22;12364;47.810;8.810;2023-07-08T19:05:14;29.50;72.10
24232;DHT22;12364;47.810;8.810;2023-07-08T19:07:41;29.50;72.20
24232;DHT22;12364;47.810;8.810;2023-07-08T19:10:08;29.40;72.20
24232;DHT22;12364;47.810;8.810;2023-07-08T19:12:36;29.50;72.20
24232;DHT22;12364;47.810;8.810;2023-07-08T19:15:03;29.30;71.60
24232;DHT22;12364;47.810;8.810;2023-07-08T19:17:31;29.30;71.30
24232;DHT22;12364;47.810;8.810;2023-07-08T19:19:58;29.30;71.40
24232;DHT22;12364;47.810;8.810;2023-07-08T19:22:25;29.20;71.70
24232;DHT22;12364;47.810;8.810;2023-07-08T19:24:53;29.20;72.20
24232;DHT22;12364;47.810;8.810;2023-07-08T19:27:20;29.10;72.40
24232;DHT22;12364;47.810;8.810;2023-07-08T19:29:47;29.00;72.50
24232;DHT22;12364;47.810;8.810;2023-07-08T19:32:15;29.00;72.70
24232;DHT22;12364;47.810;8.810;2023-07-08T19:34:43;28.90;73.40
24232;DHT22;12364;47.810;8.810;2023-07-08T19:37:15;28.80;73.70
24232;DHT22;12364;47.810;8.810;2023-07-08T19:39:42;28.80;73.50
24232;DHT22;12364;47.810;8.810;2023-07-08T19:42:12;28.70;73.30
24232;DHT22;12364;47.810;8.810;2023-07-08T19:44:39;28.70;73.60
24232;DHT22;12364;47.810;8.810;2023-07-08T19:47:08;28.60;73.70
24232;DHT22;12364;47.810;8.810;2023-07-08T19:49:36;28.60;73.20
24232;DHT22;12364;47.810;8.810;2023-07-08T19:52:04;28.50;73.20
24232;DHT22;12364;47.810;8.810;2023-07-08T19:54:31;28.40;75.30
24232;DHT22;12364;47.810;8.810;2023-07-08T19:56:58;28.40;76.40
24232;DHT22;12364;47.810;8.810;2023-07-08T19:59:26;28.30;76.40
24232;DHT22;12364;47.810;8.810;2023-07-08T20:01:54;28.20;76.20
24232;DHT22;12364;47.810;8.810;2023-07-08T20:04:21;28.20;76.70
24232;DHT22;12364;47.810;8.810;2023-07-08T20:06:48;28.20;75.90
24232;DHT22;12364;47.810;8.810;2023-07-08T20:09:17;28.10;75.80
24232;DHT22;12364;47.810;8.810;2023-07-08T20:11:45;28.10;75.70
24232;DHT22;12364;47.810;8.810;2023-07-08T20:14:12;28.10;75.70
24232;DHT22;12364;47.810;8.810;2023-07-08T20:16:40;28.00;75.00
24232;DHT22;12364;47.810;8.810;2023-07-08T20:19:17;27.90;75.20
24232;DHT22;12364;47.810;8.810;2023-07-08T20:21:44;27.80;75.20
24232;DHT22;12364;47.810;8.810;2023-07-08T20:24:11;27.80;75.70
24232;DHT22;12364;47.810;8.810;2023-07-08T20:26:39;27.70;75.70
24232;DHT22;12364;47.810;8.810;2023-07-08T20:29:08;27.70;76.10
24232;DHT22;12364;47.810;8.810;2023-07-08T20:31:36;27.60;76.50
24232;DHT22;12364;47.810;8.810;2023-07-08T20:34:04;27.60;76.10
24232;DHT22;12364;47.810;8.810;2023-07-08T20:36:30;27.50;76.00
24232;DHT22;12364;47.810;8.810;2023-07-08T20:38:57;27.50;76.50
24232;DHT22;12364;47.810;8.810;2023-07-08T20:41:24;27.40;76.40
24232;DHT22;12364;47.810;8.810;2023-07-08T20:43:51;27.30;77.40
24232;DHT22;12364;47.810;8.810;2023-07-08T20:46:20;27.30;77.80
24232;DHT22;12364;47.810;8.810;2023-07-08T20:48:52;27.20;79.10
24232;DHT22;12364;47.810;8.810;2023-07-08T20:51:20;27.10;79.50
24232;DHT22;12364;47.810;8.810;2023-07-08T20:53:47;27.00;80.20
24232;DHT22;12364;47.810;8.810;2023-07-08T20:56:18;26.90;80.80
24232;DHT22;12364;47.810;8.810;2023-07-08T20:58:46;26.80;81.30
24232;DHT22;12364;47.810;8.810;2023-07-08T21:01:13;26.70;81.90
24232;DHT22;12364;47.810;8.810;2023-07-08T21:03:41;26.60;82.40
24232;DHT22;12364;47.810;8.810;2023-07-08T21:06:19;26.60;82.80
24232;DHT22;12364;47.810;8.810;2023-07-08T21:08:47;26.50;82.90
24232;DHT22;12364;47.810;8.810;2023-07-08T21:11:14;26.40;82.90
24232;DHT22;12364;47.810;8.810;2023-07-08T21:13:41;26.40;81.80